sensor_id;sensor_type;location;lat;lon;timestamp;pressure;altitude;pressure_sealevel;temperature;humidity
70921;BME280;58572;48.110;19.838;2023-01-26T00:02:24;98385.41;;;3.46;71.67
70921;BME280;58572;48.110;19.838;2023-01-26T00:04:51;98482.09;;;3.89;72.57
70921;BME280;58572;48.110;19.838;2023-01-26T00:07:18;98474.22;;;4.06;72.14
70921;BME280;58572;48.110;19.838;2023-01-26T00:09:45;98478.00;;;3.68;73.29
70921;BME280;58572;48.110;19.838;2023-01-26T00:12:12;98410.81;;;3.32;73.30
70921;BME280;58572;48.110;19.838;2023-01-26T00:14:41;98466.31;;;3.93;72.22
70921;BME280;58572;48.110;19.838;2023-01-26T00:17:21;98458.53;;;4.03;71.99
70921;BME280;58572;48.110;19.838;2023-01-26T00:19:55;98461.34;;;4.08;71.60
70921;BME280;58572;48.110;19.838;2023-01-26T00:22:23;98462.00;;;3.92;72.30
70921;BME280;58572;48.110;19.838;2023-01-26T00:24:51;98461.03;;;3.68;73.00
70921;BME280;58572;48.110;19.838;2023-01-26T00:27:18;98460.97;;;3.74;72.67
70921;BME280;58572;48.110;19.838;2023-01-26T00:29:47;98467.69;;;3.65;73.23
70921;BME280;58572;48.110;19.838;2023-01-26T00:32:15;98456.47;;;3.68;73.39
70921;BME280;58572;48.110;19.838;2023-01-26T00:34:42;98457.50;;;3.85;72.29
70921;BME280;58572;48.110;19.838;2023-01-26T00:37:09;98447.41;;;3.99;71.94
70921;BME280;58572;48.110;19.838;2023-01-26T00:39:36;98453.88;;;4.10;71.64
70921;BME280;58572;48.110;19.838;2023-01-26T00:42:03;98456.03;;;3.71;72.72
70921;BME280;58572;48.110;19.838;2023-01-26T00:44:36;98449.09;;;3.45;74.22
70921;BME280;58572;48.110;19.838;2023-01-26T00:47:08;98352.38;;;3.27;72.61
70921;BME280;58572;48.110;19.838;2023-01-26T00:49:36;98438.97;;;3.96;72.00
70921;BME280;58572;48.110;19.838;2023-01-26T00:52:04;98445.94;;;3.85;72.99
70921;BME280;58572;48.110;19.838;2023-01-26T00:54:31;98435.91;;;3.92;72.28
70921;BME280;58572;48.110;19.838;2023-01-26T00:56:58;98433.47;;;3.72;73.10
70921;BME280;58572;48.110;19.838;2023-01-26T00:59:26;98430.81;;;4.02;72.16
70921;BME280;58572;48.110;19.838;2023-01-26T01:01:54;98399.91;;;3.93;71.36
70921;BME280;58572;48.110;19.838;2023-01-26T01:04:24;98437.75;;;3.43;72.77
70921;BME280;58572;48.110;19.838;2023-01-26T01:06:51;98434.19;;;3.06;75.02
70921;BME280;58572;48.110;19.838;2023-01-26T01:09:18;98424.06;;;3.63;72.98
70921;BME280;58572;48.110;19.838;2023-01-26T01:11:45;98422.78;;;4.14;70.88
70921;BME280;58572;48.110;19.838;2023-01-26T01:14:13;98342.88;;;3.06;72.50
70921;BME280;58572;48.110;19.838;2023-01-26T01:16:40;98423.75;;;3.90;71.98
70921;BME280;58572;48.110;19.838;2023-01-26T01:19:10;98424.63;;;2.92;74.75
70921;BME280;58572;48.110;19.838;2023-01-26T01:21:40;98434.06;;;2.51;77.53
70921;BME280;58572;48.110;19.838;2023-01-26T01:24:07;98424.88;;;2.34;77.28
70921;BME280;58572;48.110;19.838;2023-01-26T01:26:35;98422.44;;;2.58;77.42
70921;BME280;58572;48.110;19.838;2023-01-26T01:29:02;98306.28;;;2.50;74.79
70921;BME280;58572;48.110;19.838;2023-01-26T01:31:29;98422.66;;;3.24;74.61
70921;BME280;58572;48.110;19.838;2023-01-26T01:33:56;98416.53;;;3.53;73.56
70921;BME280;58572;48.110;19.838;2023-01-26T01:36:24;98414.56;;;3.79;72.83
70921;BME280;58572;48.110;19.838;2023-01-26T01:38:52;98420.19;;;3.59;72.99
70921;BME280;58572;48.110;19.838;2023-01-26T01:41:20;98419.88;;;3.67;72.94
70921;BME280;58572;48.110;19.838;2023-01-26T01:43:48;98406.69;;;3.96;71.95
70921;BME280;58572;48.110;19.838;2023-01-26T01:46:24;98405.59;;;3.85;71.93
70921;BME280;58572;48.110;19.838;2023-01-26T01:48:58;98407.38;;;3.91;71.44
70921;BME280;58572;48.110;19.838;2023-01-26T01:51:32;98283.41;;;2.48;74.35
70921;BME280;58572;48.110;19.838;2023-01-26T01:54:06;98397.19;;;3.63;73.38
70921;BME280;58572;48.110;19.838;2023-01-26T01:56:35;98396.19;;;3.28;73.42
70921;BME280;58572;48.110;19.838;2023-01-26T01:59:04;98393.47;;;3.46;74.24
70921;BME280;58572;48.110;19.838;2023-01-26T02:01:33;98391.25;;;3.25;74.35
70921;BME280;58572;48.110;19.838;2023-01-26T02:04:03;98422.03;;;2.29;75.95
70921;BME280;58572;48.110;19.838;2023-01-26T02:06:35;98394.31;;;2.85;75.72
70921;BME280;58572;48.110;19.838;2023-01-26T02:09:06;98289.44;;;2.43;74.92
70921;BME280;58572;48.110;19.838;2023-01-26T02:11:53;98381.41;;;3.37;73.76
70921;BME280;58572;48.110;19.838;2023-01-26T02:14:21;98373.56;;;3.83;72.37
70921;BME280;58572;48.110;19.838;2023-01-26T02:16:49;98374.28;;;3.61;72.14
70921;BME280;58572;48.110;19.838;2023-01-26T02:19:25;98376.97;;;3.42;73.46
70921;BME280;58572;48.110;19.838;2023-01-26T02:21:58;98359.31;;;3.35;73.39
70921;BME280;58572;48.110;19.838;2023-01-26T02:24:34;98373.16;;;3.50;73.67
70921;BME280;58572;48.110;19.838;2023-01-26T02:27:04;98368.72;;;3.74;72.48
70921;BME280;58572;48.110;19.838;2023-01-26T02:29:31;98359.09;;;3.66;72.50
70921;BME280;58572;48.110;19.838;2023-01-26T02:31:59;98358.88;;;3.98;71.74
70921;BME280;58572;48.110;19.838;2023-01-26T02:34:26;98359.50;;;3.51;73.36
70921;BME280;58572;48.110;19.838;2023-01-26T02:36:57;98320.78;;;3.71;71.50
70921;BME280;58572;48.110;19.838;2023-01-26T02:39:38;98356.28;;;3.06;73.18
70921;BME280;58572;48.110;19.838;2023-01-26T02:42:08;98347.44;;;3.24;73.48
70921;BME280;58572;48.110;19.838;2023-01-26T02:44:53;98339.16;;;3.26;73.65
70921;BME280;58572;48.110;19.838;2023-01-26T02:47:20;98256.19;;;2.81;74.19
70921;BME280;58572;48.110;19.838;2023-01-26T02:49:47;98335.25;;;3.03;73.03
70921;BME280;58572;48.110;19.838;2023-01-26T02:52:15;98330.47;;;2.87;74.95
70921;BME280;58572;48.110;19.838;2023-01-26T02:54:44;98325.28;;;3.29;73.95
70921;BME280;58572;48.110;19.838;2023-01-26T02:57:30;98320.38;;;3.56;72.86
70921;BME280;58572;48.110;19.838;2023-01-26T02:59:58;98321.94;;;3.15;74.40
70921;BME280;58572;48.110;19.838;2023-01-26T03:02:26;98318.41;;;3.33;74.05
70921;BME280;58572;48.110;19.838;2023-01-26T03:04:53;98283.00;;;3.36;73.10
70921;BME280;58572;48.110;19.838;2023-01-26T03:07:20;98304.47;;;3.54;73.41
70921;BME280;58572;48.110;19.838;2023-01-26T03:09:48;98310.19;;;3.28;73.79
70921;BME280;58572;48.110;19.838;2023-01-26T03:12:15;98303.09;;;2.97;74.56
70921;BME280;58572;48.110;19.838;2023-01-26T03:14:43;98289.75;;;3.08;74.29
70921;BME280;58572;48.110;19.838;2023-01-26T03:17:10;98295.63;;;3.35;73.47
70921;BME280;58572;48.110;19.838;2023-01-26T03:19:38;98298.28;;;3.53;73.65
70921;BME280;58572;48.110;19.838;2023-01-26T03:22:22;98290.66;;;3.50;73.29
70921;BME280;58572;48.110;19.838;2023-01-26T03:25:07;98288.81;;;3.51;73.22
70921;BME280;58572;48.110;19.838;2023-01-26T03:27:52;98295.63;;;3.35;73.87
70921;BME280;58572;48.110;19.838;2023-01-26T03:30:21;98296.75;;;3.28;73.83
70921;BME280;58572;48.110;19.838;2023-01-26T03:32:48;98292.06;;;3.05;74.58
70921;BME280;58572;48.110;19.838;2023-01-26T03:35:15;98293.63;;;2.94;75.52
70921;BME280;58572;48.110;19.838;2023-01-26T03:37:47;98287.06;;;3.27;73.61
70921;BME280;58572;48.110;19.838;2023-01-26T03:40:19;98283.91;;;2.38;74.78
70921;BME280;58572;48.110;19.838;2023-01-26T03:43:06;98289.75;;;2.04;76.49
70921;BME280;58572;48.110;19.838;2023-01-26T03:45:54;98289.53;;;2.55;76.54
70921;BME280;58572;48.110;19.838;2023-01-26T03:48:38;98284.00;;;2.86;74.90
70921;BME280;58572;48.110;19.838;2023-01-26T03:51:23;98280.28;;;2.69;76.06
70921;BME280;58572;48.110;19.838;2023-01-26T03:54:07;98272.75;;;3.14;74.34
70921;BME280;58572;48.110;19.838;2023-01-26T03:56:52;98232.91;;;2.93;72.76
70921;BME280;58572;48.110;19.838;2023-01-26T03:59:19;98275.50;;;3.08;74.63
70921;BME280;58572;48.110;19.838;2023-01-26T04:02:04;98269.75;;;3.23;74.09
70921;BME280;58572;48.110;19.838;2023-01-26T04:04:49;98269.59;;;2.99;74.68
70921;BME280;58572;48.110;19.838;2023-01-26T04:07:33;98268.63;;;3.12;74.44
70921;BME280;58572;48.110;19.838;2023-01-26T04:10:17;98253.59;;;3.41;72.92
70921;BME280;58572;48.110;19.838;2023-01-26T04:12:45;98172.38;;;3.09;72.65
70921;BME280;58572;48.110;19.838;2023-01-26T04:15:29;98251.03;;;3.46;73.27
70921;BME280;58572;48.110;19.838;2023-01-26T04:18:15;98249.78;;;3.60;72.42
70921;BME280;58572;48.110;19.838;2023-01-26T04:21:01;98242.22;;;3.69;72.46
70921;BME280;58572;48.110;19.838;2023-01-26T04:23:46;98248.63;;;3.56;72.23
70921;BME280;58572;48.110;19.838;2023-01-26T04:26:13;98258.28;;;3.15;73.55
70921;BME280;58572;48.110;19.838;2023-01-26T04:28:40;98166.59;;;2.64;73.68
70921;BME280;58572;48.110;19.838;2023-01-26T04:31:08;98234.50;;;3.31;73.21
70921;BME280;58572;48.110;19.838;2023-01-26T04:33:37;98242.06;;;3.22;73.50
70921;BME280;58572;48.110;19.838;2023-01-26T04:36:05;98241.84;;;3.24;73.39
70921;BME280;58572;48.110;19.838;2023-01-26T04:38:32;98252.28;;;3.32;73.45
70921;BME280;58572;48.110;19.838;2023-01-26T04:41:00;98019.34;;;1.89;73.11
70921;BME280;58572;48.110;19.838;2023-01-26T04:43:27;98235.97;;;3.45;72.70
70921;BME280;58572;48.110;19.838;2023-01-26T04:45:58;98178.88;;;3.19;72.79
70921;BME280;58572;48.110;19.838;2023-01-26T04:48:25;98230.47;;;3.40;72.55
70921;BME280;58572;48.110;19.838;2023-01-26T04:50:54;98228.34;;;3.12;73.34
70921;BME280;58572;48.110;19.838;2023-01-26T04:53:22;98236.78;;;3.15;73.38
70921;BME280;58572;48.110;19.838;2023-01-26T04:55:49;98239.19;;;2.69;75.07
70921;BME280;58572;48.110;19.838;2023-01-26T04:58:16;98243.53;;;2.70;74.82
70921;BME280;58572;48.110;19.838;2023-01-26T05:00:44;98229.09;;;3.01;73.98
70921;BME280;58572;48.110;19.838;2023-01-26T05:03:15;98228.44;;;2.87;74.00
70921;BME280;58572;48.110;19.838;2023-01-26T05:05:43;98232.78;;;2.70;74.49
70921;BME280;58572;48.110;19.838;2023-01-26T05:08:11;98234.28;;;2.84;74.35
70921;BME280;58572;48.110;19.838;2023-01-26T05:10:38;98236.78;;;3.15;73.81
70921;BME280;58572;48.110;19.838;2023-01-26T05:13:06;98240.88;;;3.00;74.58
70921;BME280;58572;48.110;19.838;2023-01-26T05:15:33;98235.47;;;2.88;74.00
70921;BME280;58572;48.110;19.838;2023-01-26T05:18:00;98229.19;;;3.12;74.27
70921;BME280;58572;48.110;19.838;2023-01-26T05:20:28;98235.16;;;2.78;74.41
70921;BME280;58572;48.110;19.838;2023-01-26T05:22:55;98234.75;;;3.11;73.40
70921;BME280;58572;48.110;19.838;2023-01-26T05:25:24;98242.66;;;3.24;73.51
70921;BME280;58572;48.110;19.838;2023-01-26T05:27:51;98233.59;;;3.37;73.17
70921;BME280;58572;48.110;19.838;2023-01-26T05:30:19;98227.03;;;3.33;72.67
70921;BME280;58572;48.110;19.838;2023-01-26T05:32:46;98231.31;;;3.52;71.89
70921;BME280;58572;48.110;19.838;2023-01-26T05:35:14;98233.03;;;3.46;72.50
70921;BME280;58572;48.110;19.838;2023-01-26T05:37:41;98212.38;;;3.17;72.89
70921;BME280;58572;48.110;19.838;2023-01-26T05:40:11;98236.06;;;3.38;72.60
70921;BME280;58572;48.110;19.838;2023-01-26T05:42:41;98219.56;;;3.35;72.85
70921;BME280;58572;48.110;19.838;2023-01-26T05:45:10;98235.75;;;3.58;72.51
70921;BME280;58572;48.110;19.838;2023-01-26T05:47:37;98230.59;;;3.45;72.47
70921;BME280;58572;48.110;19.838;2023-01-26T05:50:05;98237.59;;;3.46;72.51
70921;BME280;58572;48.110;19.838;2023-01-26T05:52:32;98236.00;;;3.27;72.83
70921;BME280;58572;48.110;19.838;2023-01-26T05:54:59;98236.97;;;3.32;72.71
70921;BME280;58572;48.110;19.838;2023-01-26T05:57:27;98244.47;;;3.42;72.34
70921;BME280;58572;48.110;19.838;2023-01-26T05:59:55;98245.31;;;3.42;72.82
70921;BME280;58572;48.110;19.838;2023-01-26T06:02:23;98238.97;;;3.37;72.64
70921;BME280;58572;48.110;19.838;2023-01-26T06:04:51;98149.63;;;2.81;72.79
70921;BME280;58572;48.110;19.838;2023-01-26T06:07:19;98244.03;;;3.45;72.76
70921;BME280;58572;48.110;19.838;2023-01-26T06:09:46;98241.28;;;3.63;72.29
70921;BME280;58572;48.110;19.838;2023-01-26T06:12:15;98237.59;;;3.46;72.28
70921;BME280;58572;48.110;19.838;2023-01-26T06:14:42;98249.34;;;3.33;72.76
70921;BME280;58572;48.110;19.838;2023-01-26T06:17:12;98243.44;;;3.43;72.46
70921;BME280;58572;48.110;19.838;2023-01-26T06:19:39;98236.88;;;3.39;72.76
70921;BME280;58572;48.110;19.838;2023-01-26T06:22:07;98203.66;;;3.22;72.85
70921;BME280;58572;48.110;19.838;2023-01-26T06:24:34;98186.94;;;3.19;72.46
70921;BME280;58572;48.110;19.838;2023-01-26T06:27:02;98224.09;;;3.64;71.65
70921;BME280;58572;48.110;19.838;2023-01-26T06:29:31;98226.28;;;3.56;71.80
70921;BME280;58572;48.110;19.838;2023-01-26T06:31:59;98227.22;;;3.49;72.12
70921;BME280;58572;48.110;19.838;2023-01-26T06:34:30;98222.97;;;3.42;72.77
70921;BME280;58572;48.110;19.838;2023-01-26T06:36:57;98221.72;;;3.44;71.97
70921;BME280;58572;48.110;19.838;2023-01-26T06:39:24;98219.03;;;3.56;72.30
70921;BME280;58572;48.110;19.838;2023-01-26T06:41:51;98228.16;;;3.55;71.74
70921;BME280;58572;48.110;19.838;2023-01-26T06:44:19;98220.75;;;3.39;72.46
70921;BME280;58572;48.110;19.838;2023-01-26T06:46:46;98227.19;;;3.38;72.23
70921;BME280;58572;48.110;19.838;2023-01-26T06:49:13;98225.13;;;3.51;72.27
70921;BME280;58572;48.110;19.838;2023-01-26T06:51:46;98218.19;;;3.44;72.25
70921;BME280;58572;48.110;19.838;2023-01-26T06:54:18;98149.69;;;2.93;72.92
70921;BME280;58572;48.110;19.838;2023-01-26T06:56:45;98230.25;;;3.53;72.12
70921;BME280;58572;48.110;19.838;2023-01-26T06:59:13;98224.06;;;3.52;72.24
70921;BME280;58572;48.110;19.838;2023-01-26T07:01:42;98227.56;;;3.53;71.74
70921;BME280;58572;48.110;19.838;2023-01-26T07:04:11;98231.03;;;3.42;72.36
70921;BME280;58572;48.110;19.838;2023-01-26T07:06:39;98225.81;;;3.47;72.18
70921;BME280;58572;48.110;19.838;2023-01-26T07:09:08;98219.28;;;3.55;72.29
70921;BME280;58572;48.110;19.838;2023-01-26T07:11:36;98220.56;;;3.52;72.27
70921;BME280;58572;48.110;19.838;2023-01-26T07:14:03;98219.84;;;3.45;72.08
70921;BME280;58572;48.110;19.838;2023-01-26T07:16:30;98212.22;;;3.42;72.77
70921;BME280;58572;48.110;19.838;2023-01-26T07:18:57;98217.16;;;3.45;72.52
70921;BME280;58572;48.110;19.838;2023-01-26T07:21:25;98091.53;;;2.87;71.75
70921;BME280;58572;48.110;19.838;2023-01-26T07:23:52;98208.63;;;3.48;72.59
70921;BME280;58572;48.110;19.838;2023-01-26T07:26:22;98210.63;;;3.52;72.28
70921;BME280;58572;48.110;19.838;2023-01-26T07:28:49;98171.56;;;3.38;71.84
70921;BME280;58572;48.110;19.838;2023-01-26T07:31:16;98125.88;;;2.97;72.31
70921;BME280;58572;48.110;19.838;2023-01-26T07:33:44;98204.31;;;3.47;72.35
70921;BME280;58572;48.110;19.838;2023-01-26T07:36:11;98198.13;;;3.58;72.07
70921;BME280;58572;48.110;19.838;2023-01-26T07:38:38;98164.16;;;3.22;72.48
70921;BME280;58572;48.110;19.838;2023-01-26T07:41:07;98210.06;;;3.62;71.99
70921;BME280;58572;48.110;19.838;2023-01-26T07:43:36;98202.00;;;3.20;73.35
70921;BME280;58572;48.110;19.838;2023-01-26T07:46:04;98204.81;;;3.67;72.10
70921;BME280;58572;48.110;19.838;2023-01-26T07:48:31;98177.06;;;3.43;71.96
70921;BME280;58572;48.110;19.838;2023-01-26T07:51:00;98207.00;;;3.47;71.91
70921;BME280;58572;48.110;19.838;2023-01-26T07:53:28;98198.13;;;3.58;72.07
70921;BME280;58572;48.110;19.838;2023-01-26T07:56:08;98214.72;;;2.95;70.13
70921;BME280;58572;48.110;19.838;2023-01-26T07:58:38;98206.94;;;3.05;72.72
70921;BME280;58572;48.110;19.838;2023-01-26T08:01:07;98196.00;;;3.48;71.71
70921;BME280;58572;48.110;19.838;2023-01-26T08:03:35;98197.09;;;3.59;71.78
70921;BME280;58572;48.110;19.838;2023-01-26T08:06:03;98183.88;;;3.58;71.43
70921;BME280;58572;48.110;19.838;2023-01-26T08:08:30;98190.56;;;3.67;71.56
70921;BME280;58572;48.110;19.838;2023-01-26T08:10:59;98197.19;;;3.52;71.91
70921;BME280;58572;48.110;19.838;2023-01-26T08:13:26;98194.09;;;3.91;70.51
70921;BME280;58572;48.110;19.838;2023-01-26T08:15:59;98120.41;;;3.45;70.30
70921;BME280;58572;48.110;19.838;2023-01-26T08:18:26;98195.19;;;3.48;70.94
70921;BME280;58572;48.110;19.838;2023-01-26T08:20:55;98180.13;;;3.47;72.09
70921;BME280;58572;48.110;19.838;2023-01-26T08:23:22;98177.75;;;3.39;72.49
70921;BME280;58572;48.110;19.838;2023-01-26T08:25:50;98199.69;;;3.77;71.03
70921;BME280;58572;48.110;19.838;2023-01-26T08:28:17;98199.34;;;4.09;68.87
70921;BME280;58572;48.110;19.838;2023-01-26T08:30:44;98207.91;;;3.41;72.36
70921;BME280;58572;48.110;19.838;2023-01-26T08:33:13;98203.66;;;3.87;70.15
70921;BME280;58572;48.110;19.838;2023-01-26T08:35:40;98200.75;;;3.35;71.92
70921;BME280;58572;48.110;19.838;2023-01-26T08:38:10;98208.69;;;3.71;71.00
70921;BME280;58572;48.110;19.838;2023-01-26T08:40:37;98205.28;;;3.64;70.94
70921;BME280;58572;48.110;19.838;2023-01-26T08:43:04;98198.63;;;3.78;70.78
70921;BME280;58572;48.110;19.838;2023-01-26T08:45:31;98198.41;;;3.80;70.25
70921;BME280;58572;48.110;19.838;2023-01-26T08:47:58;98196.13;;;3.53;70.81
70921;BME280;58572;48.110;19.838;2023-01-26T08:50:27;98193.50;;;4.12;69.67
70921;BME280;58572;48.110;19.838;2023-01-26T08:52:55;98115.84;;;3.57;69.54
70921;BME280;58572;48.110;19.838;2023-01-26T08:55:23;98161.94;;;3.96;69.49
70921;BME280;58572;48.110;19.838;2023-01-26T08:57:53;98099.56;;;3.17;70.23
70921;BME280;58572;48.110;19.838;2023-01-26T09:00:31;98195.69;;;3.68;71.19
70921;BME280;58572;48.110;19.838;2023-01-26T09:02:59;98193.69;;;3.52;70.88
70921;BME280;58572;48.110;19.838;2023-01-26T09:05:31;98205.06;;;3.77;70.70
70921;BME280;58572;48.110;19.838;2023-01-26T09:07:58;98203.75;;;3.68;70.21
70921;BME280;58572;48.110;19.838;2023-01-26T09:10:26;98203.88;;;3.73;70.40
70921;BME280;58572;48.110;19.838;2023-01-26T09:12:53;98205.94;;;3.48;71.53
70921;BME280;58572;48.110;19.838;2023-01-26T09:15:21;98202.97;;;3.79;69.99
70921;BME280;58572;48.110;19.838;2023-01-26T09:17:48;98199.59;;;3.31;69.07
70921;BME280;58572;48.110;19.838;2023-01-26T09:20:16;98197.41;;;3.51;70.36
70921;BME280;58572;48.110;19.838;2023-01-26T09:22:45;98189.03;;;3.59;63.55
70921;BME280;58572;48.110;19.838;2023-01-26T09:25:14;98196.41;;;3.22;66.83
70921;BME280;58572;48.110;19.838;2023-01-26T09:27:41;98192.19;;;2.96;68.90
70921;BME280;58572;48.110;19.838;2023-01-26T09:30:09;98193.53;;;3.35;64.87
70921;BME280;58572;48.110;19.838;2023-01-26T09:32:37;98184.31;;;3.43;69.05
70921;BME280;58572;48.110;19.838;2023-01-26T09:35:05;98166.94;;;3.80;68.74
70921;BME280;58572;48.110;19.838;2023-01-26T09:37:36;98179.59;;;4.03;68.33
70921;BME280;58572;48.110;19.838;2023-01-26T09:40:15;98173.47;;;3.49;69.59
70921;BME280;58572;48.110;19.838;2023-01-26T09:42:53;98179.22;;;3.76;66.87
70921;BME280;58572;48.110;19.838;2023-01-26T09:45:27;98181.66;;;3.13;64.16
70921;BME280;58572;48.110;19.838;2023-01-26T09:48:11;98173.75;;;3.30;67.94
70921;BME280;58572;48.110;19.838;2023-01-26T09:50:46;98184.19;;;2.60;64.92
70921;BME280;58572;48.110;19.838;2023-01-26T09:53:19;98171.47;;;3.45;68.02
70921;BME280;58572;48.110;19.838;2023-01-26T09:55:51;98164.50;;;3.67;67.19
70921;BME280;58572;48.110;19.838;2023-01-26T09:58:23;98113.50;;;3.49;66.62
70921;BME280;58572;48.110;19.838;2023-01-26T10:00:57;98168.19;;;2.83;62.49
70921;BME280;58572;48.110;19.838;2023-01-26T10:03:31;98159.22;;;2.41;65.06
70921;BME280;58572;48.110;19.838;2023-01-26T10:06:06;98154.53;;;2.54;64.82
70921;BME280;58572;48.110;19.838;2023-01-26T10:08:41;98158.34;;;2.47;64.53
70921;BME280;58572;48.110;19.838;2023-01-26T10:11:16;98149.53;;;3.71;63.44
70921;BME280;58572;48.110;19.838;2023-01-26T10:13:49;98149.41;;;3.78;60.92
70921;BME280;58572;48.110;19.838;2023-01-26T10:16:18;98144.63;;;4.27;64.92
70921;BME280;58572;48.110;19.838;2023-01-26T10:18:51;98144.72;;;3.62;60.20
70921;BME280;58572;48.110;19.838;2023-01-26T10:21:21;98148.56;;;2.34;65.33
70921;BME280;58572;48.110;19.838;2023-01-26T10:23:51;98131.59;;;2.40;63.88
70921;BME280;58572;48.110;19.838;2023-01-26T10:26:21;98123.94;;;3.92;64.30
70921;BME280;58572;48.110;19.838;2023-01-26T10:28:52;98129.66;;;3.84;64.37
70921;BME280;58572;48.110;19.838;2023-01-26T10:31:22;98129.03;;;2.45;64.81
70921;BME280;58572;48.110;19.838;2023-01-26T10:33:53;98056.97;;;2.91;65.86
70921;BME280;58572;48.110;19.838;2023-01-26T10:36:21;98090.28;;;3.01;63.37
70921;BME280;58572;48.110;19.838;2023-01-26T10:38:49;98061.38;;;2.73;62.92
70921;BME280;58572;48.110;19.838;2023-01-26T10:41:26;98114.66;;;3.30;60.78
70921;BME280;58572;48.110;19.838;2023-01-26T10:43:56;98115.72;;;3.29;61.53
70921;BME280;58572;48.110;19.838;2023-01-26T10:46:29;98109.88;;;2.60;63.21
70921;BME280;58572;48.110;19.838;2023-01-26T10:48:58;98074.72;;;3.33;62.79
70921;BME280;58572;48.110;19.838;2023-01-26T10:51:28;98108.63;;;3.69;63.68
70921;BME280;58572;48.110;19.838;2023-01-26T10:54:18;98098.22;;;3.49;61.25
70921;BME280;58572;48.110;19.838;2023-01-26T10:56:49;98105.34;;;2.42;65.16
70921;BME280;58572;48.110;19.838;2023-01-26T10:59:30;98095.88;;;3.00;62.92
70921;BME280;58572;48.110;19.838;2023-01-26T11:02:00;98092.47;;;3.69;64.66
70921;BME280;58572;48.110;19.838;2023-01-26T11:04:28;98086.63;;;3.49;60.57
70921;BME280;58572;48.110;19.838;2023-01-26T11:06:55;98087.72;;;3.06;63.22
70921;BME280;58572;48.110;19.838;2023-01-26T11:09:25;98080.88;;;4.04;64.38
70921;BME280;58572;48.110;19.838;2023-01-26T11:12:08;98052.38;;;3.21;63.89
70921;BME280;58572;48.110;19.838;2023-01-26T11:14:58;98074.72;;;4.43;62.43
70921;BME280;58572;48.110;19.838;2023-01-26T11:17:28;98075.38;;;3.99;64.28
70921;BME280;58572;48.110;19.838;2023-01-26T11:20:06;98071.41;;;4.01;64.79
70921;BME280;58572;48.110;19.838;2023-01-26T11:22:45;98067.81;;;3.49;64.48
70921;BME280;58572;48.110;19.838;2023-01-26T11:25:22;98063.50;;;3.48;65.22
70921;BME280;58572;48.110;19.838;2023-01-26T11:28:04;98060.00;;;3.59;65.00
70921;BME280;58572;48.110;19.838;2023-01-26T11:31:01;98046.66;;;3.76;64.12
70921;BME280;58572;48.110;19.838;2023-01-26T11:33:38;98056.06;;;3.08;65.64
70921;BME280;58572;48.110;19.838;2023-01-26T11:36:21;98056.38;;;3.30;65.32
70921;BME280;58572;48.110;19.838;2023-01-26T11:38:55;98054.25;;;2.79;61.61
70921;BME280;58572;48.110;19.838;2023-01-26T11:41:39;98052.84;;;3.18;65.37
70921;BME280;58572;48.110;19.838;2023-01-26T11:44:34;98046.94;;;4.14;63.22
70921;BME280;58572;48.110;19.838;2023-01-26T11:47:20;98045.38;;;3.43;61.32
70921;BME280;58572;48.110;19.838;2023-01-26T11:53:04;98032.88;;;3.37;60.74
70921;BME280;58572;48.110;19.838;2023-01-26T11:55:52;98029.97;;;3.15;62.90
70921;BME280;58572;48.110;19.838;2023-01-26T11:58:30;98024.41;;;2.87;62.66
70921;BME280;58572;48.110;19.838;2023-01-26T12:01:03;98027.63;;;2.66;64.83
70921;BME280;58572;48.110;19.838;2023-01-26T12:03:38;98017.22;;;3.46;61.62
70921;BME280;58572;48.110;19.838;2023-01-26T12:06:16;98013.16;;;3.43;64.59
70921;BME280;58572;48.110;19.838;2023-01-26T12:08:48;98011.25;;;3.56;63.60
70921;BME280;58572;48.110;19.838;2023-01-26T12:11:22;98013.25;;;3.60;63.77
70921;BME280;58572;48.110;19.838;2023-01-26T12:16:49;98009.53;;;3.38;64.15
70921;BME280;58572;48.110;19.838;2023-01-26T12:19:31;97999.47;;;3.22;63.33
70921;BME280;58572;48.110;19.838;2023-01-26T12:22:11;97996.22;;;3.19;63.72
70921;BME280;58572;48.110;19.838;2023-01-26T12:24:43;97979.81;;;2.86;63.75
70921;BME280;58572;48.110;19.838;2023-01-26T12:27:16;98010.06;;;3.05;63.63
70921;BME280;58572;48.110;19.838;2023-01-26T12:29:49;97831.59;;;2.37;58.74
70921;BME280;58572;48.110;19.838;2023-01-26T12:32:19;97996.19;;;3.43;62.21
70921;BME280;58572;48.110;19.838;2023-01-26T12:34:47;98000.81;;;2.89;63.63
70921;BME280;58572;48.110;19.838;2023-01-26T12:37:30;97972.16;;;3.25;59.17
70921;BME280;58572;48.110;19.838;2023-01-26T12:40:11;97999.38;;;3.16;63.67
70921;BME280;58572;48.110;19.838;2023-01-26T12:42:44;97994.56;;;3.18;62.88
70921;BME280;58572;48.110;19.838;2023-01-26T12:45:16;97989.91;;;3.26;63.46
70921;BME280;58572;48.110;19.838;2023-01-26T12:47:48;97911.06;;;2.73;63.33
70921;BME280;58572;48.110;19.838;2023-01-26T12:50:23;97994.69;;;3.35;59.87
70921;BME280;58572;48.110;19.838;2023-01-26T12:52:55;97999.22;;;3.11;64.00
70921;BME280;58572;48.110;19.838;2023-01-26T12:55:27;97972.81;;;3.08;64.31
70921;BME280;58572;48.110;19.838;2023-01-26T12:57:57;97988.03;;;3.14;59.72
70921;BME280;58572;48.110;19.838;2023-01-26T13:00:29;97993.50;;;3.55;59.11
70921;BME280;58572;48.110;19.838;2023-01-26T13:03:02;98001.97;;;2.70;63.26
70921;BME280;58572;48.110;19.838;2023-01-26T13:05:32;97992.00;;;3.35;63.00
70921;BME280;58572;48.110;19.838;2023-01-26T13:10:58;97987.44;;;3.24;63.48
70921;BME280;58572;48.110;19.838;2023-01-26T13:13:28;97991.41;;;3.57;60.81
70921;BME280;58572;48.110;19.838;2023-01-26T13:19:02;97987.22;;;3.37;63.24
70921;BME280;58572;48.110;19.838;2023-01-26T13:21:41;97981.97;;;3.31;64.46
70921;BME280;58572;48.110;19.838;2023-01-26T13:24:40;97977.16;;;3.44;63.74
70921;BME280;58572;48.110;19.838;2023-01-26T13:27:27;97975.63;;;3.60;63.30
70921;BME280;58572;48.110;19.838;2023-01-26T13:29:54;97980.66;;;3.97;62.85
70921;BME280;58572;48.110;19.838;2023-01-26T13:32:50;97972.28;;;3.81;63.55
70921;BME280;58572;48.110;19.838;2023-01-26T13:35:21;97977.78;;;3.87;62.88